• Join FlightAware (Why Join?)
  • Login
  • US Flag 
07:35PM EDT


 

Airport Tracker/Info


-or-


 

Live Flight TrackerFlight Track Log ✈ RPA3159 ✈ 10-Jul-2013 ✈ KBTV - KPHL

Flight Track Log - Related Links

Times and Time Zones

All times are in EDT time to prevent confusion due to time zone crossing. See the RPA3159 flight status page for this flight to view local times or setup timezone preferences in your user account.

Time Position Orientation Groundspeed Altitude Reporting Facility
EDT Latitude Longitude Course Direction KTS MPH feet Rate Location/Type
11:54AM 44.2016 -73.2500 180° South  Level FlightAware Approximate
11:55AM 44.1127 -73.2828 195° South  Level FlightAware Approximate
11:55AM 44.2817 -73.1911 195° South 269 310 8,400  Level Boston Center
11:56AM 44.0234 -73.3144 194° South  Level FlightAware Approximate
11:56AM 44.2067 -73.2219 196° South 280 322 10,800  Level Boston Center
11:57AM 43.9339 -73.3443 193° South  Level FlightAware Approximate
11:57AM 44.1250 -73.2556 196° South 303 349 13,200  Level Boston Center
11:58AM 43.8449 -73.3770 195° South  Level FlightAware Approximate
11:58AM 44.0372 -73.2919 197° South 314 361 15,800  Level Boston Center
11:59AM 43.7560 -73.4104 195° South  Level FlightAware Approximate
11:59AM 43.9517 -73.3283 197° South 326 375 17,900  Level Boston Center
12:00PM 43.6671 -73.4436 195° South  Level FlightAware Approximate
12:00PM 43.8514 -73.3700 197° South 336 387 20,400  Level Boston Center
12:01PM 43.7592 -73.4058 196° South 342 394 22,100 1,620 Climbing Boston Center
12:02PM 43.6525 -73.4500 197° South 355 409 24,000 1,560 Climbing Boston Center
12:03PM 43.5522 -73.4886 196° South 361 415 25,300 960 Climbing Boston Center
12:04PM 43.4497 -73.5325 197° South 380 437 26,000 300 Climbing Boston Center
12:05PM 43.3469 -73.6019 206° Southwest 376 433 26,000  Level Boston Center
12:06PM 43.2731 -73.6861 220° Southwest 383 441 26,000  Level Boston Center
12:07PM 43.1928 -73.7786 220° Southwest 383 441 26,000  Level Boston Center
12:08PM 43.1125 -73.8764 222° Southwest 383 441 26,000  Level Boston Center
12:09PM 43.0342 -73.9683 221° Southwest 383 441 26,000  Level Boston Center
12:10PM 42.9536 -74.0656 221° Southwest 383 441 26,000  Level Boston Center
12:11PM 42.8708 -74.1625 221° Southwest 383 441 26,000  Level Boston Center
12:12PM 42.7881 -74.2536 219° Southwest 383 441 26,000 -300 Level Boston Center
12:13PM 42.7075 -74.3500 221° Southwest 383 441 25,400 -1,020 Descending Boston Center
12:14PM 42.6308 -74.4408 221° Southwest 383 441 24,000 -720 Descending Boston Center
12:15PM 42.5542 -74.5314 221° Southwest 383 441 24,000  Level Boston Center
12:16PM 42.4753 -74.6189 219° Southwest 383 441 24,000  Level Boston Center
12:17PM 42.3986 -74.7061 220° Southwest 377 434 24,000  Level Boston Center
12:18PM 42.3097 -74.7789 211° Southwest 377 434 24,000 -720 Level Boston Center
12:20PM 42.1289 -74.8842 203° Southwest 373 429 21,900 -1,320 Descending New York Center
12:21PM 42.0344 -74.9650 212° Southwest 368 423 20,200 -1,440 Descending New York Center
12:22PM 41.9567 -75.0464 218° Southwest 368 423 19,000 -600 Descending New York Center
12:23PM 41.8856 -75.1169 216° Southwest 358 412 19,000 -300 Level New York Center
12:24PM 41.8097 -75.1956 218° Southwest 358 412 18,500 -1,080 Descending New York Center
12:25PM 41.7494 -75.3000 232° Southwest 345 397 16,900 -1,440 Descending New York Center
12:26PM 41.6939 -75.3961 232° Southwest 335 386 15,700 -1,260 Descending New York Center
12:27PM 41.6422 -75.4925 234° Southwest 330 380 14,400 -1,260 Descending New York Center
12:28PM 41.5911 -75.5694 228° Southwest 322 371 13,200 -1,260 Descending New York Center
12:29PM 41.5083 -75.6050 198° South 310 357 12,000 -600 Descending New York Center
12:30PM 41.4156 -75.6369 194° South 317 365 12,000  Level New York Center
12:31PM 41.3331 -75.6669 195° South 317 365 12,000  Level New York Center
12:32PM 41.2467 -75.6911 192° South 317 365 12,000  Level New York Center
12:33PM 41.1611 -75.6903 180° South 317 365 12,000 -300 Level New York Center
12:34PM 41.0800 -75.6872 178° South 317 365 11,500 -720 Descending New York Center
12:35PM 40.9925 -75.6892 181° South 317 365 10,600 -780 Descending New York Center
12:36PM 40.8989 -75.6850 178° South 317 365 10,000 -300 Descending New York Center
12:37PM 40.8153 -75.6461 161° South 312 359 10,000  Level New York Center
12:38PM 40.7339 -75.5964 155° Southeast 318 366 10,000  Level New York Center
12:39PM 40.6503 -75.5497 157° South 324 373 10,000  Level New York Center
12:40PM 40.5689 -75.5003 155° Southeast 329 379 10,000  Level New York Center
12:41PM 40.4875 -75.4536 156° South 324 373 10,000 -600 Level New York Center
12:42PM 40.4100 -75.4103 157° South 318 366 8,900 -1,380 Descending New York Center
12:43PM 40.3494 -75.3600 148° Southeast 296 341 7,300 -1,500 Descending New York Center
12:44PM 40.2903 -75.2717 131° Southeast 289 333 6,000 -660 Descending New York Center
12:45PM 40.2328 -75.1944 134° Southeast 289 333 6,000  Level New York Center
12:46PM 40.1792 -75.1258 136° Southeast 296 341 6,000  Level New York Center
12:47PM 40.1431 -75.0286 116° Southeast 271 312 6,000  Level New York Center
12:48PM 40.1778 -74.9872 42° Northeast 182 209 6,000  Level New York Center
12:49PM 40.2025 -75.0511 297° West 87 100 6,000  Level New York Center
12:50PM 40.2025 -75.1136 270° West 181 208 6,000  Level New York Center
12:51PM 40.1894 -75.1836 256° West 181 208 6,000  Level New York Center
12:52PM 40.1425 -75.2078 201° Southwest 168 193 6,000  Level New York Center
12:53PM 40.0667 -75.2000 176° South 218 251 6,000  Level Philadelphia TRACON
12:54PM 40.0167 -75.1500 143° Southeast 216 249 6,000  Level Philadelphia TRACON
12:55PM 39.9833 -75.1167 143° Southeast 232 267 6,000 -120 Level Philadelphia TRACON
12:56PM 40.0000 -75.0167 78° East 222 255 5,800 -600 Descending Philadelphia TRACON
12:57PM 40.0167 -74.9500 72° East 206 237 4,800 -960 Descending Philadelphia TRACON
12:58PM 39.9833 -74.9000 131° Southeast 188 216 4,000 -420 Descending Philadelphia TRACON
12:59PM 39.9500 -74.9000 180° South 169 194 4,000  Level Philadelphia TRACON
01:00PM 39.9333 -74.9500 247° West 159 183 4,000 -360 Level Philadelphia TRACON
01:01PM 39.9167 -75.0000 247° West 161 185 3,300 -720 Descending Philadelphia TRACON